Time;durP1;ratioP1;P1;durP2;ratioP2;P2;SDS_P1;SDS_P2;PMS_P1;PMS_P2;Temp;Humidity;BMP_temperature;BMP_pressure;BME280_temperature;BME280_humidity;BME280_pressure;Samples;Min_cycle;Max_cycle;Signal;HPM_P1;HPM_P2
2022/02/26 00:02:24;;;;;;;2.47;0.87;;;;;;;3.83;61.67;100274.19;5084488;28;20237;-74
2022/02/26 00:04:54;;;;;;;2.77;1.10;;;;;;;3.80;62.22;100271.03;5089077;28;20645;-73
2022/02/26 00:07:21;;;;;;;3.47;1.13;;;;;;;3.81;62.38;100276.19;5085385;28;20310;-73
2022/02/26 00:09:47;;;;;;;2.97;0.90;;;;;;;3.74;62.51;100276.97;5060107;28;20236;-75
2022/02/26 00:12:14;;;;;;;3.73;1.00;;;;;;;3.68;63.37;100280.28;5066886;28;20247;-73
2022/02/26 00:14:41;;;;;;;1.60;1.00;;;;;;;3.57;63.72;100277.91;5088446;28;20226;-73
2022/02/26 00:17:08;;;;;;;2.13;0.90;;;;;;;3.53;63.87;100277.41;5080689;28;20236;-74
2022/02/26 00:19:35;;;;;;;2.43;1.00;;;;;;;3.66;63.07;100283.06;5080866;28;20240;-74
2022/02/26 00:22:04;;;;;;;2.07;0.97;;;;;;;3.63;63.34;100285.22;5084403;28;20668;-73
2022/02/26 00:24:31;;;;;;;3.17;1.07;;;;;;;3.58;63.31;100283.06;5085040;28;20291;-73
2022/02/26 00:26:59;;;;;;;2.80;1.10;;;;;;;3.54;63.88;100276.41;5085090;28;20220;-73
2022/02/26 00:29:26;;;;;;;3.70;1.13;;;;;;;3.60;63.46;100280.22;5085311;28;20320;-73
2022/02/26 00:31:53;;;;;;;2.70;1.10;;;;;;;3.71;62.80;100287.91;5070479;28;20324;-73
2022/02/26 00:34:20;;;;;;;3.70;0.80;;;;;;;3.53;63.62;100290.63;5085032;28;20572;-73
2022/02/26 00:36:47;;;;;;;2.40;0.80;;;;;;;3.53;63.83;100291.47;5090511;28;20315;-73
2022/02/26 00:39:35;;;;;;;3.60;1.00;;;;;;;3.50;64.40;100297.06;5082285;28;20254;-74
2022/02/26 00:42:04;;;;;;;1.83;0.97;;;;;;;3.59;63.33;100292.66;5082470;28;20251;-73
2022/02/26 00:44:31;;;;;;;3.00;0.90;;;;;;;3.60;63.84;100296.13;5065001;28;20624;-73
2022/02/26 00:46:58;;;;;;;2.73;0.90;;;;;;;3.73;63.92;100301.84;5085295;28;20228;-74
2022/02/26 00:52:10;;;;;;;2.70;0.93;;;;;;;3.64;64.74;100300.94;5065254;28;20327;-75
2022/02/26 00:54:41;;;;;;;2.83;1.10;;;;;;;3.54;66.08;100306.38;5084915;28;20661;-73
2022/02/26 00:57:08;;;;;;;2.83;0.97;;;;;;;3.58;66.18;100320.16;5087352;28;20663;-74
2022/02/26 00:59:34;;;;;;;2.33;1.07;;;;;;;3.58;66.82;100314.00;5065131;28;20227;-74
2022/02/26 01:02:02;;;;;;;2.47;1.03;;;;;;;3.73;66.36;100301.84;5085315;28;20259;-74
2022/02/26 01:04:34;;;;;;;2.37;1.03;;;;;;;3.58;67.30;100311.34;5065546;28;20221;-74
2022/02/26 01:07:07;;;;;;;3.90;1.13;;;;;;;3.42;68.72;100315.56;5084654;28;20232;-74
2022/02/26 01:09:34;;;;;;;3.27;1.20;;;;;;;3.45;69.33;100319.75;5068762;28;20239;-73
2022/02/26 01:12:01;;;;;;;2.87;1.50;;;;;;;3.58;69.13;100327.25;5089816;28;20580;-74
2022/02/26 01:14:30;;;;;;;4.13;1.40;;;;;;;3.57;69.30;100325.59;5084595;28;20231;-73
2022/02/26 01:17:01;;;;;;;4.70;1.37;;;;;;;3.35;70.93;100327.81;5088818;28;20572;-73
2022/02/26 01:19:28;;;;;;;4.53;1.60;;;;;;;3.36;71.61;100320.69;5084406;28;20280;-74
2022/02/26 01:21:55;;;;;;;3.27;1.43;;;;;;;3.42;71.83;100325.34;5090331;28;20255;-73
2022/02/26 01:24:23;;;;;;;3.47;1.47;;;;;;;3.32;72.26;100324.63;5084538;28;20699;-74
2022/02/26 01:26:50;;;;;;;3.07;1.60;;;;;;;3.33;72.78;100332.41;5082165;28;20234;-73
2022/02/26 01:29:17;;;;;;;3.07;1.60;;;;;;;3.40;72.61;100333.47;5063213;28;20224;-73
2022/02/26 01:31:48;;;;;;;3.63;1.60;;;;;;;3.36;72.35;100332.09;5081289;28;20289;-73
2022/02/26 01:34:17;;;;;;;4.87;1.70;;;;;;;3.30;72.53;100335.38;5081604;28;20224;-73
2022/02/26 01:36:44;;;;;;;3.63;1.47;;;;;;;3.22;73.38;100332.66;5085142;28;20224;-73
2022/02/26 01:39:13;;;;;;;3.30;1.33;;;;;;;3.22;73.92;100335.31;5066594;28;20217;-73
2022/02/26 01:41:52;;;;;;;3.83;1.50;;;;;;;3.14;75.12;100332.59;5085691;28;20224;-74
2022/02/26 01:44:19;;;;;;;3.50;1.60;;;;;;;3.08;75.06;100334.06;5076408;28;20299;-73
2022/02/26 01:46:47;;;;;;;3.90;1.70;;;;;;;3.02;75.75;100331.22;5080619;28;20228;-73
2022/02/26 01:49:15;;;;;;;3.87;1.77;;;;;;;2.95;76.51;100333.63;5081482;28;20276;-73
2022/02/26 01:51:41;;;;;;;3.60;1.50;;;;;;;2.93;76.89;100330.31;5080836;28;20567;-73
2022/02/26 01:54:10;;;;;;;2.80;1.60;;;;;;;2.82;77.81;100327.06;5080445;28;20636;-73
2022/02/26 01:56:37;;;;;;;3.57;1.50;;;;;;;2.82;78.72;100327.91;5080701;28;20528;-74
2022/02/26 01:59:06;;;;;;;3.53;1.87;;;;;;;2.87;78.64;100327.44;5068225;28;20224;-73
2022/02/26 02:01:33;;;;;;;4.87;2.03;;;;;;;3.04;77.98;100326.56;5081252;28;20224;-74
2022/02/26 02:04:03;;;;;;;4.80;2.20;;;;;;;3.22;75.99;100324.72;5082255;28;20284;-73
2022/02/26 02:06:30;;;;;;;4.33;2.27;;;;;;;3.12;76.85;100323.16;5078035;28;20314;-74
2022/02/26 02:08:59;;;;;;;3.80;2.10;;;;;;;3.00;78.44;100319.94;5085518;28;20248;-73
2022/02/26 02:11:30;;;;;;;3.90;1.80;;;;;;;2.96;79.12;100326.53;5088431;28;20230;-73
2022/02/26 02:13:57;;;;;;;5.57;2.03;;;;;;;3.16;78.03;100325.34;5080855;28;20232;-73
2022/02/26 02:16:25;;;;;;;4.67;2.20;;;;;;;3.04;79.34;100323.94;5084168;28;20227;-74
2022/02/26 02:18:52;;;;;;;5.03;2.00;;;;;;;3.02;79.27;100325.91;5085511;28;20236;-73
2022/02/26 02:21:20;;;;;;;7.13;2.10;;;;;;;3.05;80.62;100331.72;5080556;28;20275;-74
2022/02/26 02:23:47;;;;;;;5.27;2.30;;;;;;;2.99;80.21;100329.69;5065580;28;20311;-73
2022/02/26 02:26:16;;;;;;;5.17;2.43;;;;;;;2.86;81.87;100331.91;5083497;28;20323;-73
2022/02/26 02:28:43;;;;;;;4.17;2.30;;;;;;;2.99;80.81;100329.69;5061309;28;20225;-74
2022/02/26 02:31:10;;;;;;;3.40;1.87;;;;;;;2.90;81.54;100329.78;5070985;28;20664;-73
2022/02/26 02:33:59;;;;;;;5.80;2.20;;;;;;;2.86;81.35;100331.91;5080814;28;20255;-73
2022/02/26 02:36:26;;;;;;;3.77;2.00;;;;;;;2.87;82.09;100330.09;5077862;28;20638;-73
2022/02/26 02:38:52;;;;;;;4.53;1.90;;;;;;;2.78;82.73;100337.13;5059928;28;20580;-74
2022/02/26 02:41:20;;;;;;;6.07;2.10;;;;;;;2.86;83.29;100325.78;5064860;28;20229;-73
2022/02/26 02:43:48;;;;;;;3.33;1.93;;;;;;;2.92;82.46;100331.31;5078214;28;20292;-73
2022/02/26 02:46:16;;;;;;;4.10;2.30;;;;;;;2.98;81.94;100324.56;5084235;28;20290;-73
2022/02/26 02:48:43;;;;;;;3.77;2.20;;;;;;;2.93;82.00;100322.38;5069077;28;20244;-75
2022/02/26 02:51:10;;;;;;;4.63;2.13;;;;;;;2.91;82.40;100319.03;5083429;28;20350;-73
2022/02/26 02:53:37;;;;;;;5.83;2.37;;;;;;;2.95;82.62;100316.91;5084850;28;20213;-73
2022/02/26 02:56:04;;;;;;;2.97;1.87;;;;;;;3.08;80.99;100319.97;5082064;28;20324;-73
2022/02/26 02:58:34;;;;;;;3.30;1.87;;;;;;;2.97;82.32;100314.97;5081102;28;20581;-73
2022/02/26 03:01:01;;;;;;;4.40;2.10;;;;;;;2.90;83.51;100320.03;5089275;28;20307;-73
2022/02/26 03:03:28;;;;;;;5.77;2.27;;;;;;;2.83;84.60;100318.16;5082389;28;20228;-74
2022/02/26 03:05:56;;;;;;;4.80;1.93;;;;;;;2.94;83.31;100318.72;5073307;28;20217;-74
2022/02/26 03:08:26;;;;;;;6.03;2.40;;;;;;;2.83;84.48;100320.78;5065142;28;20619;-73
2022/02/26 03:10:54;;;;;;;3.00;1.90;;;;;;;2.85;85.58;100330.22;5082593;28;20519;-74
2022/02/26 03:13:25;;;;;;;4.30;2.17;;;;;;;2.83;85.66;100326.09;5065732;28;20327;-74
2022/02/26 03:15:52;;;;;;;4.17;2.00;;;;;;;2.94;85.80;100337.25;5059878;28;20234;-74
2022/02/26 03:18:22;;;;;;;4.23;2.30;;;;;;;2.85;86.30;100335.53;5059870;28;20696;-73
2022/02/26 03:20:53;;;;;;;4.57;2.23;;;;;;;2.95;86.40;100341.56;5082250;28;20489;-74
2022/02/26 03:23:20;;;;;;;4.23;2.10;;;;;;;2.93;85.93;100340.91;5086019;28;20274;-73
2022/02/26 03:25:47;;;;;;;4.70;2.23;;;;;;;2.86;87.43;100342.50;5082411;28;20220;-73
2022/02/26 03:28:14;;;;;;;4.90;2.10;;;;;;;3.01;87.20;100351.56;5079433;28;20513;-73
2022/02/26 03:30:41;;;;;;;4.23;2.07;;;;;;;2.93;87.36;100354.16;5045397;28;20373;-73
2022/02/26 03:33:08;;;;;;;5.03;2.37;;;;;;;2.97;87.25;100358.16;5060724;28;20679;-74
2022/02/26 03:35:36;;;;;;;3.40;2.10;;;;;;;3.08;85.51;100359.69;5081947;28;20258;-73
2022/02/26 03:38:04;;;;;;;3.17;1.93;;;;;;;3.02;86.81;100355.88;5081074;28;20228;-73
2022/02/26 03:40:34;;;;;;;4.57;2.07;;;;;;;3.08;85.40;100355.22;5089213;28;20242;-73
2022/02/26 03:43:02;;;;;;;3.50;1.90;;;;;;;3.07;86.04;100353.59;5085734;28;20229;-73
2022/02/26 03:45:30;;;;;;;2.37;1.97;;;;;;;3.05;85.84;100355.56;5081267;28;20223;-73
2022/02/26 03:47:59;;;;;;;5.13;2.33;;;;;;;2.94;86.48;100360.28;5081851;28;20224;-74
2022/02/26 03:50:25;;;;;;;3.67;2.10;;;;;;;2.94;87.48;100358.44;5062577;28;20219;-75
2022/02/26 03:52:52;;;;;;;3.23;1.93;;;;;;;2.97;87.25;100352.00;5060425;28;20311;-74
2022/02/26 03:55:19;;;;;;;4.53;2.20;;;;;;;2.88;87.89;100356.41;5088957;28;20221;-73
2022/02/26 03:57:46;;;;;;;3.97;2.10;;;;;;;2.94;87.88;100358.44;5081824;28;20224;-73
2022/02/26 04:00:14;;;;;;;3.17;1.90;;;;;;;2.97;88.12;100363.44;5078936;28;20712;-74
2022/02/26 04:02:43;;;;;;;5.13;2.07;;;;;;;2.93;88.18;100362.09;5066459;28;20311;-73
2022/02/26 04:05:12;;;;;;;3.67;2.10;;;;;;;2.90;88.49;100365.00;5060976;28;20229;-74
2022/02/26 04:07:40;;;;;;;4.30;2.30;;;;;;;2.88;89.95;100367.00;5050370;28;20296;-74
2022/02/26 04:10:09;;;;;;;3.63;2.50;;;;;;;2.95;90.09;100370.69;5080478;28;20231;-73
2022/02/26 04:12:36;;;;;;;4.30;2.13;;;;;;;3.00;89.51;100378.16;5092034;28;20251;-73
2022/02/26 04:15:04;;;;;;;4.00;2.30;;;;;;;2.91;90.73;100376.44;5081082;28;20228;-73
2022/02/26 04:17:32;;;;;;;4.50;2.23;;;;;;;2.90;91.94;100380.91;5081755;28;20256;-73
2022/02/26 04:20:00;;;;;;;5.70;2.73;;;;;;;2.99;90.50;100376.50;5090005;28;20248;-73
2022/02/26 04:22:27;;;;;;;3.40;2.20;;;;;;;2.91;91.58;100376.44;5084005;28;20254;-73
2022/02/26 04:24:54;;;;;;;3.73;2.40;;;;;;;3.03;91.26;100383.19;5082156;28;20228;-73
2022/02/26 04:27:20;;;;;;;5.50;2.40;;;;;;;2.97;90.93;100384.63;5080744;28;20228;-73
2022/02/26 04:29:49;;;;;;;4.93;2.40;;;;;;;2.98;92.06;100396.88;5087652;28;20539;-73
2022/02/26 04:32:37;;;;;;;4.83;2.43;;;;;;;2.97;92.20;100394.38;5081006;28;20228;-73
2022/02/26 04:35:06;;;;;;;4.13;2.30;;;;;;;3.03;91.80;100393.78;5082494;28;20224;-73
2022/02/26 04:37:33;;;;;;;3.90;2.47;;;;;;;3.11;91.72;100396.47;5081459;28;20274;-74
2022/02/26 04:40:00;;;;;;;5.37;2.90;;;;;;;3.06;91.15;100393.44;5088593;28;20622;-73
2022/02/26 04:42:27;;;;;;;5.37;2.63;;;;;;;3.11;91.16;100396.47;5083802;28;20282;-73
2022/02/26 04:44:55;;;;;;;4.30;2.40;;;;;;;3.05;91.77;100394.44;5069024;28;20314;-73
2022/02/26 04:47:22;;;;;;;4.47;2.60;;;;;;;3.15;90.87;100397.00;5084459;28;20247;-73
2022/02/26 04:49:49;;;;;;;5.77;2.80;;;;;;;3.02;92.14;100392.09;5089587;28;20220;-73
2022/02/26 04:52:16;;;;;;;5.03;2.77;;;;;;;3.01;92.78;100390.44;5084407;28;20235;-74
2022/02/26 04:54:42;;;;;;;4.73;2.80;;;;;;;3.09;91.65;100404.56;5063213;28;20522;-74
2022/02/26 04:57:09;;;;;;;6.43;3.20;;;;;;;3.09;90.99;100401.91;5085670;28;20284;-73
2022/02/26 04:59:39;;;;;;;4.53;2.80;;;;;;;3.02;91.82;100405.34;5092246;28;20217;-73
2022/02/26 05:02:06;;;;;;;4.23;2.60;;;;;;;3.01;92.12;100411.59;5090396;28;20227;-74
2022/02/26 05:04:33;;;;;;;8.10;3.20;;;;;;;2.84;95.29;100418.56;5091399;28;20281;-74
2022/02/26 05:07:01;;;;;;;7.80;3.40;;;;;;;2.94;95.76;100418.50;5088714;28;20232;-73
2022/02/26 05:09:29;;;;;;;4.07;3.03;;;;;;;3.04;94.44;100429.81;5083553;28;20734;-74
2022/02/26 05:11:58;;;;;;;5.70;3.20;;;;;;;3.02;94.92;100424.69;5087675;28;20296;-74
2022/02/26 05:14:26;;;;;;;5.13;3.00;;;;;;;3.01;95.34;100427.50;5083786;28;20254;-73
2022/02/26 05:16:54;;;;;;;6.97;3.50;;;;;;;2.87;97.24;100428.84;5092097;28;20520;-73
2022/02/26 05:19:22;;;;;;;5.47;3.37;;;;;;;2.75;99.35;100432.72;5091977;28;20227;-73
2022/02/26 05:21:49;;;;;;;4.77;3.60;;;;;;;2.95;99.47;100436.03;5083769;28;20247;-73
2022/02/26 05:24:18;;;;;;;5.30;3.43;;;;;;;2.93;98.98;100432.72;5061265;28;20223;-74
2022/02/26 05:26:47;;;;;;;5.37;3.80;;;;;;;2.73;100.00;100436.47;5058728;28;20319;-74
2022/02/26 05:29:14;;;;;;;4.37;3.70;;;;;;;2.74;100.00;100438.97;5087993;28;20252;-74
2022/02/26 05:31:41;;;;;;;4.60;3.63;;;;;;;2.78;100.00;100442.16;5087691;28;20289;-73
2022/02/26 05:34:10;;;;;;;8.20;3.87;;;;;;;2.69;100.00;100443.06;5082896;28;20531;-73
2022/02/26 05:36:39;;;;;;;7.07;4.37;;;;;;;2.70;100.00;100448.22;5063005;22;20218;-73
2022/02/26 05:39:07;;;;;;;6.43;4.20;;;;;;;2.59;100.00;100445.75;5031289;28;20268;-73
2022/02/26 05:41:35;;;;;;;5.43;4.43;;;;;;;2.66;100.00;100458.22;5039125;28;20764;-73
2022/02/26 05:44:02;;;;;;;6.93;4.20;;;;;;;2.56;100.00;100454.84;5043130;28;20261;-73
2022/02/26 05:46:30;;;;;;;4.70;4.13;;;;;;;2.64;100.00;100457.56;5039700;28;20240;-73
2022/02/26 05:48:56;;;;;;;6.93;4.40;;;;;;;2.69;100.00;100462.41;5039037;28;20225;-73
2022/02/26 05:51:23;;;;;;;5.00;4.13;;;;;;;2.65;100.00;100463.69;5039277;28;20555;-73
2022/02/26 05:53:55;;;;;;;5.17;3.80;;;;;;;2.65;100.00;100453.09;5042302;28;20237;-72
2022/02/26 05:56:22;;;;;;;4.57;3.90;;;;;;;2.74;100.00;100461.97;5038844;28;20297;-72
2022/02/26 05:58:51;;;;;;;6.70;4.03;;;;;;;2.62;100.00;100458.69;5030459;28;20513;-73
2022/02/26 06:01:19;;;;;;;10.60;4.40;;;;;;;2.60;100.00;100466.78;5042600;28;20725;-73
2022/02/26 06:03:47;;;;;;;5.10;3.90;;;;;;;2.64;100.00;100475.25;5043734;28;20229;-72
2022/02/26 06:06:16;;;;;;;4.80;3.47;;;;;;;2.71;100.00;100472.84;5042731;28;20325;-73
2022/02/26 06:08:43;;;;;;;4.10;3.53;;;;;;;2.76;100.00;100474.03;5039116;28;20222;-72
2022/02/26 06:11:10;;;;;;;4.73;3.33;;;;;;;2.70;100.00;100484.41;5040599;28;20242;-72
2022/02/26 06:13:37;;;;;;;5.50;3.87;;;;;;;2.88;100.00;100491.41;5042907;28;20283;-73
2022/02/26 06:16:05;;;;;;;4.67;3.17;;;;;;;2.98;100.00;100488.69;5038584;28;20233;-73
2022/02/26 06:18:32;;;;;;;4.43;3.23;;;;;;;3.04;100.00;100496.00;5041690;28;20255;-73
2022/02/26 06:20:59;;;;;;;4.87;3.60;;;;;;;3.14;100.00;100499.44;5043492;28;20243;-72
2022/02/26 06:23:27;;;;;;;4.87;3.30;;;;;;;3.12;100.00;100504.06;5044127;28;20232;-73
2022/02/26 06:25:56;;;;;;;4.07;3.50;;;;;;;3.27;100.00;100507.00;5049023;28;20311;-72
2022/02/26 06:28:24;;;;;;;4.87;3.53;;;;;;;3.55;100.00;100511.22;5041753;28;20309;-72
2022/02/26 06:30:52;;;;;;;4.97;3.37;;;;;;;3.53;100.00;100511.38;5037331;28;20249;-72
2022/02/26 06:33:20;;;;;;;5.63;3.30;;;;;;;3.70;100.00;100514.16;5046104;28;20314;-72
2022/02/26 06:35:50;;;;;;;5.30;3.57;;;;;;;3.86;100.00;100519.59;5047083;28;20269;-72
2022/02/26 06:38:17;;;;;;;5.73;3.87;;;;;;;3.77;100.00;100516.06;5038512;28;20226;-73
2022/02/26 06:40:43;;;;;;;4.80;3.50;;;;;;;3.82;100.00;100518.25;5024954;28;20248;-72
2022/02/26 06:43:12;;;;;;;4.70;4.07;;;;;;;3.89;100.00;100521.91;5042826;28;20264;-73
2022/02/26 06:45:39;;;;;;;4.73;4.13;;;;;;;3.96;100.00;100529.13;5025414;28;20328;-72
2022/02/26 06:48:09;;;;;;;6.70;4.10;;;;;;;3.72;100.00;100533.41;5040895;28;20316;-73
2022/02/26 06:50:39;;;;;;;5.83;4.33;;;;;;;3.86;100.00;100536.31;5042560;28;20229;-72
2022/02/26 06:53:07;;;;;;;4.93;3.60;;;;;;;4.01;100.00;100533.13;5038334;28;20288;-72
2022/02/26 06:55:33;;;;;;;6.43;3.87;;;;;;;4.19;98.28;100539.19;5040943;28;20535;-72
2022/02/26 06:58:01;;;;;;;5.17;4.00;;;;;;;4.19;98.80;100539.19;5024282;28;20279;-72
2022/02/26 07:00:30;;;;;;;6.23;3.60;;;;;;;4.33;97.67;100542.09;5037265;28;20245;-73
2022/02/26 07:02:57;;;;;;;4.40;3.40;;;;;;;4.47;95.16;100534.53;5037368;28;20253;-72
2022/02/26 07:05:24;;;;;;;5.70;3.40;;;;;;;4.76;90.50;100543.78;5045539;28;20325;-73
2022/02/26 07:07:51;;;;;;;4.70;3.43;;;;;;;4.87;88.84;100540.84;5037737;28;20253;-72
2022/02/26 07:10:18;;;;;;;5.20;3.23;;;;;;;5.01;86.47;100527.94;5044807;28;20229;-72
2022/02/26 07:12:45;;;;;;;4.40;2.60;;;;;;;5.35;83.16;100541.97;5036692;28;20237;-73
2022/02/26 07:15:11;;;;;;;4.73;3.17;;;;;;;5.58;81.53;100550.13;5047537;28;20291;-72
2022/02/26 07:17:39;;;;;;;6.67;2.97;;;;;;;5.72;81.65;100547.66;5039507;28;20248;-73
2022/02/26 07:20:06;;;;;;;4.30;2.80;;;;;;;5.80;78.29;100549.47;5038052;28;20675;-72
2022/02/26 07:22:37;;;;;;;3.73;2.37;;;;;;;5.87;73.74;100553.16;5037516;28;20505;-73
2022/02/26 07:25:06;;;;;;;3.10;2.00;;;;;;;5.85;72.62;100567.59;5046758;28;20197;-72
2022/02/26 07:27:33;;;;;;;3.17;2.10;;;;;;;5.83;72.50;100558.97;5041230;28;20527;-73
2022/02/26 07:29:59;;;;;;;3.47;2.00;;;;;;;5.86;72.83;100563.94;5041425;28;20329;-73
2022/02/26 07:32:26;;;;;;;3.20;2.10;;;;;;;6.11;72.56;100555.78;5024648;28;20234;-72
2022/02/26 07:34:53;;;;;;;3.13;2.20;;;;;;;6.30;70.39;100570.56;5040710;28;20229;-72
2022/02/26 07:37:23;;;;;;;2.90;1.90;;;;;;;6.56;68.66;100578.34;5037268;28;20238;-72
2022/02/26 07:39:52;;;;;;;3.87;2.10;;;;;;;6.44;68.79;100567.19;5034159;28;20234;-72
2022/02/26 07:42:21;;;;;;;3.57;2.20;;;;;;;6.32;67.83;100575.72;5048483;28;20234;-73
2022/02/26 07:44:50;;;;;;;3.83;2.30;;;;;;;6.18;69.30;100578.06;5023221;28;20222;-72
2022/02/26 07:47:17;;;;;;;3.97;2.20;;;;;;;5.93;70.19;100570.25;5043146;28;20226;-73
2022/02/26 07:49:46;;;;;;;3.87;2.30;;;;;;;5.64;70.58;100576.06;5038095;28;20245;-72
2022/02/26 07:52:27;;;;;;;3.53;2.07;;;;;;;5.54;72.71;100586.84;5034714;28;20275;-73
2022/02/26 07:54:55;;;;;;;2.60;1.90;;;;;;;5.42;73.10;100582.00;5024675;28;20226;-72
2022/02/26 07:57:23;;;;;;;3.13;2.17;;;;;;;5.33;74.60;100575.84;5041768;28;20236;-72
2022/02/26 07:59:50;;;;;;;4.50;2.50;;;;;;;5.44;74.87;100572.88;5047351;28;20280;-74
2022/02/26 08:02:21;;;;;;;5.33;2.70;;;;;;;5.58;73.37;100574.91;5050410;28;20282;-72
2022/02/26 08:04:52;;;;;;;6.43;2.63;;;;;;;5.79;70.20;100571.72;5046118;28;20260;-73
2022/02/26 08:07:19;;;;;;;3.07;2.27;;;;;;;5.89;70.72;100568.94;5058298;28;20256;-74
2022/02/26 08:09:47;;;;;;;5.80;2.60;;;;;;;5.88;68.76;100572.63;5049704;28;20329;-78
2022/02/26 08:12:23;;;;;;;5.13;2.10;;;;;;;6.05;67.88;100569.78;5047874;28;20249;-73
2022/02/26 08:14:53;;;;;;;2.93;2.13;;;;;;;6.04;69.17;100576.09;5046914;28;20218;-73
2022/02/26 08:17:23;;;;;;;4.10;2.57;;;;;;;5.94;69.42;100571.94;5059517;28;20238;-75
2022/02/26 08:19:56;;;;;;;2.80;2.37;;;;;;;6.00;68.78;100580.09;5037763;28;20313;-75
2022/02/26 08:22:23;;;;;;;5.13;3.03;;;;;;;6.16;68.18;100588.03;5051067;28;20235;-74
2022/02/26 08:24:53;;;;;;;3.47;2.50;;;;;;;6.28;67.30;100583.22;5042337;28;20229;-76
2022/02/26 08:27:21;;;;;;;3.77;3.00;;;;;;;6.36;66.07;100587.69;5047401;28;20223;-74
2022/02/26 08:29:49;;;;;;;5.50;2.57;;;;;;;6.57;66.19;100594.16;5050442;28;20238;-74
2022/02/26 08:32:18;;;;;;;5.77;2.40;;;;;;;6.76;64.93;100605.41;5042956;28;20249;-75
2022/02/26 08:34:46;;;;;;;3.83;2.60;;;;;;;7.29;63.67;100602.00;5058469;28;20667;-73
2022/02/26 08:37:13;;;;;;;4.30;2.50;;;;;;;7.44;62.39;100613.59;5065053;23;20248;-74
2022/02/26 08:39:46;;;;;;;4.23;2.43;;;;;;;7.51;60.61;100610.03;5030534;28;20233;-76
2022/02/26 08:42:17;;;;;;;5.27;2.53;;;;;;;7.46;61.74;100612.44;5051837;28;20208;-74
2022/02/26 08:44:45;;;;;;;4.70;2.80;;;;;;;7.50;61.52;100615.56;5051062;28;20261;-73
2022/02/26 08:47:26;;;;;;;5.13;2.60;;;;;;;7.17;61.91;100632.72;5049042;28;20221;-73
2022/02/26 08:49:54;;;;;;;3.17;2.47;;;;;;;7.09;62.28;100622.94;5048620;28;20230;-75
2022/02/26 08:52:24;;;;;;;6.57;3.13;;;;;;;7.18;63.51;100627.22;5048632;28;20690;-73
2022/02/26 08:54:56;;;;;;;6.10;2.90;;;;;;;7.03;64.13;100616.47;5020288;28;20226;-74
2022/02/26 08:57:25;;;;;;;5.63;3.33;;;;;;;6.93;64.76;100623.81;5050806;28;20220;-72
2022/02/26 09:00:11;;;;;;;3.97;2.50;;;;;;;7.08;62.77;100619.44;5049840;28;20221;-73
2022/02/26 09:02:43;;;;;;;4.17;2.20;;;;;;;7.29;62.14;100624.16;5048292;28;20249;-74
2022/02/26 09:05:14;;;;;;;5.33;2.60;;;;;;;7.46;62.07;100625.75;5047663;23;20260;-73
2022/02/26 09:07:45;;;;;;;5.00;2.40;;;;;;;7.64;60.01;100621.97;5076267;23;20221;-73
2022/02/26 09:10:13;;;;;;;5.27;1.97;;;;;;;7.35;59.77;100631.47;5066951;28;20241;-72
2022/02/26 09:12:40;;;;;;;5.60;2.67;;;;;;;7.34;59.42;100632.47;5073683;28;20231;-72
2022/02/26 09:15:13;;;;;;;4.97;2.80;;;;;;;7.26;60.52;100629.84;5085895;22;20226;-72
2022/02/26 09:17:40;;;;;;;5.10;2.60;;;;;;;7.28;60.34;100627.03;5084970;28;20228;-73
2022/02/26 09:20:17;;;;;;;5.63;3.07;;;;;;;7.63;60.43;100633.66;5089959;28;20665;-72
2022/02/26 09:23:06;;;;;;;4.10;2.07;;;;;;;7.74;58.33;100622.59;5081536;28;20243;-72
2022/02/26 09:25:41;;;;;;;5.50;2.90;;;;;;;7.58;58.00;100641.34;5095687;22;20231;-72
2022/02/26 09:28:08;;;;;;;5.27;2.60;;;;;;;7.35;58.22;100639.47;5070507;22;20218;-72
2022/02/26 09:30:37;;;;;;;4.07;1.80;;;;;;;7.22;58.49;100641.88;5052723;28;20217;-73
2022/02/26 09:33:20;;;;;;;3.77;2.10;;;;;;;7.18;58.63;100637.91;5076060;23;20252;-72
2022/02/26 09:35:48;;;;;;;6.63;2.67;;;;;;;6.95;59.35;100650.31;5055543;28;20265;-73
2022/02/26 09:38:17;;;;;;;3.13;2.17;;;;;;;6.90;59.78;100645.50;5072595;28;20217;-72
2022/02/26 09:41:01;;;;;;;6.13;2.63;;;;;;;6.76;61.57;100637.38;5074697;28;20240;-73
2022/02/26 09:43:29;;;;;;;5.40;2.00;;;;;;;6.80;61.28;100636.03;5050319;28;20243;-73
2022/02/26 09:46:01;;;;;;;4.23;1.93;;;;;;;6.91;61.47;100631.16;5074720;28;20214;-72
2022/02/26 09:48:31;;;;;;;3.93;1.93;;;;;;;6.98;60.01;100632.13;5068516;28;20233;-73
2022/02/26 09:51:00;;;;;;;4.37;1.80;;;;;;;6.97;59.33;100629.63;5070487;28;20250;-73
2022/02/26 09:53:36;;;;;;;3.93;1.50;;;;;;;7.08;60.32;100635.44;5060910;28;20305;-72
2022/02/26 09:56:04;;;;;;;3.70;1.80;;;;;;;7.27;59.88;100636.03;5055003;28;20304;-72
2022/02/26 09:59:04;;;;;;;4.17;1.93;;;;;;;7.45;59.37;100649.94;5040637;23;20338;-73
2022/02/26 10:02:01;;;;;;;4.17;2.20;;;;;;;7.60;57.55;100656.19;5055601;28;20240;-73
2022/02/26 10:04:52;;;;;;;5.47;2.20;;;;;;;7.75;57.13;100648.22;5043733;28;20221;-73
2022/02/26 10:07:41;;;;;;;4.70;1.90;;;;;;;7.84;57.23;100660.50;5083269;22;20231;-74
2022/02/26 10:10:21;;;;;;;3.20;1.70;;;;;;;7.67;56.61;100675.78;5084163;28;20208;-72
2022/02/26 10:13:01;;;;;;;3.03;1.63;;;;;;;7.62;57.28;100667.50;5091623;28;20217;-72
2022/02/26 10:15:39;;;;;;;3.47;1.80;;;;;;;7.61;56.91;100665.81;5082690;28;20238;-72
2022/02/26 10:18:13;;;;;;;2.47;1.80;;;;;;;7.63;57.25;100668.31;5089489;28;20647;-74
2022/02/26 10:20:54;;;;;;;2.83;1.97;;;;;;;7.98;57.78;100665.91;5087937;28;20267;-73
2022/02/26 10:23:30;;;;;;;3.53;1.83;;;;;;;8.51;55.14;100664.19;5079300;23;20241;-72
2022/02/26 10:26:08;;;;;;;3.93;2.00;;;;;;;8.67;54.37;100653.38;5077109;28;20512;-73
2022/02/26 10:28:41;;;;;;;3.30;1.90;;;;;;;8.68;54.09;100659.50;5065389;23;20239;-75
2022/02/26 10:31:12;;;;;;;2.50;1.43;;;;;;;8.45;52.42;100672.09;5057613;28;20250;-73
2022/02/26 10:33:41;;;;;;;2.67;1.67;;;;;;;8.67;52.08;100653.38;5064242;28;20225;-74
2022/02/26 10:36:12;;;;;;;3.67;1.80;;;;;;;8.57;52.74;100660.81;5061199;28;20229;-72
2022/02/26 10:38:41;;;;;;;3.97;1.60;;;;;;;8.46;52.62;100660.41;5066350;28;20233;-72
2022/02/26 10:41:13;;;;;;;3.47;1.67;;;;;;;8.44;52.93;100665.09;5073211;28;20299;-75
2022/02/26 10:43:55;;;;;;;4.83;1.67;;;;;;;8.31;54.05;100660.34;5059853;28;20213;-72
2022/02/26 10:46:36;;;;;;;4.70;1.90;;;;;;;8.34;52.91;100658.19;5037357;28;20225;-73
2022/02/26 10:49:09;;;;;;;2.60;1.80;;;;;;;8.70;52.00;100654.81;5060036;28;20294;-74
2022/02/26 10:51:49;;;;;;;4.97;1.73;;;;;;;8.71;52.09;100651.16;5042123;28;20240;-72
2022/02/26 10:54:28;;;;;;;5.43;1.87;;;;;;;8.87;51.58;100656.31;5059619;28;20246;-73
2022/02/26 10:57:02;;;;;;;3.40;1.70;;;;;;;9.06;50.64;100660.28;5066264;28;20232;-78
2022/02/26 10:59:41;;;;;;;4.53;1.40;;;;;;;8.91;50.40;100652.28;5054378;28;20255;-72
2022/02/26 11:02:25;;;;;;;4.13;1.70;;;;;;;8.61;50.74;100653.25;5052221;28;20519;-72
2022/02/26 11:04:55;;;;;;;4.57;1.60;;;;;;;8.47;51.73;100656.72;5056171;28;20225;-72
2022/02/26 11:07:22;;;;;;;2.40;1.57;;;;;;;8.53;52.58;100651.50;5060634;28;20312;-72
2022/02/26 11:09:53;;;;;;;4.20;1.67;;;;;;;8.30;51.96;100656.03;5049168;28;20249;-72
2022/02/26 11:12:25;;;;;;;2.43;1.40;;;;;;;8.38;52.83;100654.13;5060371;28;20240;-71
2022/02/26 11:15:03;;;;;;;4.23;1.50;;;;;;;8.39;53.11;100652.28;5056019;28;20643;-73
2022/02/26 11:17:35;;;;;;;6.60;2.80;;;;;;;8.52;53.19;100649.00;5079523;28;20517;-73
2022/02/26 11:20:06;;;;;;;4.83;1.83;;;;;;;8.43;51.98;100642.06;5064421;22;20626;-72
2022/02/26 11:22:33;;;;;;;3.13;1.50;;;;;;;8.53;52.86;100646.16;5029368;28;20209;-72
2022/02/26 11:25:00;;;;;;;2.40;2.00;;;;;;;8.48;52.11;100640.53;5052932;28;20228;-72
2022/02/26 11:27:38;;;;;;;6.37;2.03;;;;;;;8.68;51.99;100640.81;5054037;28;20236;-76
2022/02/26 11:30:08;;;;;;;2.70;1.50;;;;;;;8.55;51.37;100646.78;5055596;28;20239;-73
2022/02/26 11:32:38;;;;;;;2.63;1.70;;;;;;;8.39;51.89;100636.28;5062221;28;20236;-72
2022/02/26 11:35:17;;;;;;;2.93;2.03;;;;;;;8.33;51.08;100642.31;5056401;28;20229;-72
2022/02/26 11:37:48;;;;;;;5.27;2.97;;;;;;;8.38;50.59;100646.13;5050763;28;20257;-72
2022/02/26 11:40:16;;;;;;;3.37;1.93;;;;;;;8.64;49.45;100628.84;5030702;28;20529;-72
2022/02/26 11:42:43;;;;;;;6.47;1.67;;;;;;;8.57;49.23;100636.75;5052090;28;20232;-73
2022/02/26 11:45:33;;;;;;;3.70;1.60;;;;;;;8.88;48.73;100633.91;5057657;28;20224;-72
2022/02/26 11:48:05;;;;;;;2.37;1.60;;;;;;;8.92;48.07;100632.53;5047445;28;20225;-73